createdAt,value
2018-06-15T00:00:01.337Z,18.30
2018-06-15T00:02:31.624Z,18.30
2018-06-15T00:05:00.015Z,18.30
2018-06-15T00:07:28.560Z,18.30
2018-06-15T00:09:57.895Z,18.30
2018-06-15T00:12:26.320Z,18.30
2018-06-15T00:14:54.958Z,18.30
2018-06-15T00:17:23.376Z,18.30
2018-06-15T00:19:52.021Z,18.30
2018-06-15T00:24:48.553Z,18.20
2018-06-15T00:27:17.102Z,18.20
2018-06-15T00:29:45.534Z,18.20
2018-06-15T00:32:13.926Z,18.20
2018-06-15T00:34:42.368Z,18.20
2018-06-15T00:37:10.768Z,18.20
2018-06-15T00:39:39.293Z,18.20
2018-06-15T00:42:07.795Z,18.20
2018-06-15T00:44:36.225Z,18.20
2018-06-15T00:47:04.972Z,18.10
2018-06-15T00:49:34.540Z,18.10
2018-06-15T00:52:03.056Z,18.00
2018-06-15T00:54:31.486Z,18.00
2018-06-15T00:57:11.238Z,18.00
2018-06-15T00:59:39.657Z,17.90
2018-06-15T01:02:08.233Z,17.90
2018-06-15T01:04:36.677Z,17.90
2018-06-15T01:07:05.258Z,17.90
2018-06-15T01:09:33.996Z,17.90
2018-06-15T01:12:02.397Z,17.90
2018-06-15T01:14:30.828Z,17.90
2018-06-15T01:16:59.386Z,17.90
2018-06-15T01:19:28.230Z,17.90
2018-06-15T01:21:57.236Z,17.90
2018-06-15T01:24:25.661Z,17.90
2018-06-15T01:26:54.643Z,17.90
2018-06-15T01:29:23.144Z,17.90
2018-06-15T01:31:51.863Z,17.90
2018-06-15T01:34:20.278Z,17.90
2018-06-15T01:36:48.687Z,17.90
2018-06-15T01:39:17.285Z,17.90
2018-06-15T01:41:45.682Z,17.90
2018-06-15T01:44:14.117Z,17.80
2018-06-15T01:46:42.569Z,17.80
2018-06-15T01:49:10.978Z,17.80
2018-06-15T01:51:39.431Z,17.80
2018-06-15T01:54:08.115Z,17.80
2018-06-15T01:56:36.521Z,17.80
2018-06-15T01:59:04.962Z,17.80
2018-06-15T02:01:33.410Z,17.80
2018-06-15T02:04:01.856Z,17.80
2018-06-15T02:06:30.359Z,17.80
2018-06-15T02:08:59.055Z,17.80
2018-06-15T02:11:28.927Z,17.80
2018-06-15T02:13:57.487Z,17.80
2018-06-15T02:16:26.019Z,17.80
2018-06-15T02:18:54.491Z,17.80
2018-06-15T02:21:22.924Z,17.80
2018-06-15T02:23:52.219Z,17.80
2018-06-15T02:26:20.656Z,17.80
2018-06-15T02:28:49.338Z,17.80
2018-06-15T02:31:17.917Z,17.80
2018-06-15T02:33:46.308Z,17.80
2018-06-15T02:36:15.095Z,17.70
2018-06-15T02:38:43.549Z,17.70
2018-06-15T02:41:11.925Z,17.70
2018-06-15T02:43:40.357Z,17.80
2018-06-15T02:46:08.775Z,17.80
2018-06-15T02:48:37.404Z,17.80
2018-06-15T02:51:05.832Z,17.80
2018-06-15T02:53:34.302Z,17.80
2018-06-15T02:56:02.792Z,17.80
2018-06-15T02:58:31.204Z,17.80
2018-06-15T03:00:59.614Z,17.80
2018-06-15T03:03:28.032Z,17.80
2018-06-15T03:05:56.493Z,17.80
2018-06-15T03:08:25.222Z,17.90
2018-06-15T03:10:53.681Z,17.90
2018-06-15T03:13:22.120Z,17.80
2018-06-15T03:15:50.585Z,17.80
2018-06-15T03:18:19.015Z,17.80
2018-06-15T03:20:47.459Z,17.80
2018-06-15T03:23:15.854Z,17.80
2018-06-15T03:25:44.579Z,17.80
2018-06-15T03:28:12.977Z,17.80
2018-06-15T03:30:41.501Z,17.80
2018-06-15T03:33:09.933Z,17.80
2018-06-15T03:35:38.395Z,17.90
2018-06-15T03:38:07.541Z,17.90
2018-06-15T03:40:36.037Z,17.90
2018-06-15T03:43:04.571Z,17.90
2018-06-15T03:45:33.001Z,17.90
2018-06-15T03:48:01.441Z,17.90
2018-06-15T03:50:29.888Z,17.90
2018-06-15T03:52:58.343Z,17.90
2018-06-15T03:55:26.790Z,17.90
2018-06-15T03:57:55.305Z,17.90
2018-06-15T04:00:24.317Z,17.90
2018-06-15T04:05:20.994Z,17.90
2018-06-15T04:07:50.677Z,17.90
2018-06-15T04:10:19.096Z,17.90
2018-06-15T04:12:47.561Z,17.90
2018-06-15T04:15:16.003Z,17.90
2018-06-15T04:17:44.497Z,18.00
2018-06-15T04:22:41.073Z,18.00
2018-06-15T04:25:09.535Z,18.00
2018-06-15T04:27:37.964Z,18.10
2018-06-15T04:30:06.445Z,18.10
2018-06-15T04:32:34.923Z,18.20
2018-06-15T04:35:03.402Z,18.20
2018-06-15T04:37:32.008Z,18.20
2018-06-15T04:40:00.412Z,18.20
2018-06-15T04:42:29.764Z,18.20
2018-06-15T04:44:58.223Z,18.20
2018-06-15T04:47:26.661Z,18.10
2018-06-15T04:49:55.057Z,18.20
2018-06-15T04:52:23.499Z,18.40
2018-06-15T04:54:51.929Z,18.50
2018-06-15T04:57:20.338Z,18.60
2018-06-15T04:59:48.768Z,18.60
2018-06-15T05:04:45.708Z,18.70
2018-06-15T05:09:42.487Z,18.80
2018-06-15T05:12:10.944Z,18.90
2018-06-15T05:14:39.370Z,19.00
2018-06-15T05:17:08.014Z,19.20
2018-06-15T05:19:36.439Z,19.40
2018-06-15T05:22:04.891Z,19.70
2018-06-15T05:24:33.508Z,20.10
2018-06-15T05:27:02.068Z,20.30
2018-06-15T05:29:30.536Z,20.40
2018-06-15T05:31:59.030Z,20.40
2018-06-15T05:34:27.503Z,20.30
2018-06-15T05:36:57.033Z,20.30
2018-06-15T05:39:25.488Z,20.20
2018-06-15T05:41:54.381Z,20.20
2018-06-15T05:44:22.866Z,20.40
2018-06-15T05:46:51.288Z,20.50
2018-06-15T05:51:47.853Z,20.90
2018-06-15T05:54:16.277Z,21.20
2018-06-15T05:56:44.756Z,21.40
2018-06-15T05:59:13.252Z,21.60
2018-06-15T06:01:42.741Z,21.70
2018-06-15T06:04:11.268Z,21.80
2018-06-15T06:06:39.672Z,22.00
2018-06-15T06:09:09.534Z,22.20
2018-06-15T06:11:38.054Z,22.40
2018-06-15T06:14:06.489Z,22.50
2018-06-15T06:16:35.633Z,22.40
2018-06-15T06:19:04.513Z,22.40
2018-06-15T06:21:32.962Z,22.20
2018-06-15T06:24:01.434Z,22.20
2018-06-15T06:26:29.835Z,22.20
2018-06-15T06:28:58.622Z,22.10
2018-06-15T06:33:55.247Z,22.60
2018-06-15T06:36:23.785Z,23.00
2018-06-15T06:38:52.364Z,23.30
2018-06-15T06:41:21.224Z,23.40
2018-06-15T06:43:49.711Z,23.50
2018-06-15T06:46:18.145Z,23.50
2018-06-15T06:48:46.645Z,23.60
2018-06-15T06:51:15.092Z,24.10
2018-06-15T06:53:43.567Z,25.10
2018-06-15T06:56:11.955Z,26.30
2018-06-15T06:58:40.410Z,27.20
2018-06-15T07:01:08.878Z,27.60
2018-06-15T07:03:37.288Z,27.60
2018-06-15T07:06:05.806Z,27.70
2018-06-15T07:08:34.233Z,27.80
2018-06-15T07:11:02.648Z,27.60
2018-06-15T07:13:31.093Z,27.30
2018-06-15T07:15:59.498Z,27.00
2018-06-15T07:18:28.157Z,27.20
2018-06-15T07:20:56.748Z,27.70
2018-06-15T07:23:25.194Z,28.10
2018-06-15T07:25:53.673Z,28.80
2018-06-15T07:28:22.100Z,29.30
2018-06-15T07:30:50.517Z,29.80
2018-06-15T07:33:18.927Z,29.90
2018-06-15T07:35:47.429Z,30.00
2018-06-15T07:38:16.166Z,30.20
2018-06-15T07:40:44.589Z,30.30
2018-06-15T07:43:13.021Z,30.70
2018-06-15T07:45:41.474Z,31.00
2018-06-15T07:48:09.881Z,31.20
2018-06-15T07:50:38.444Z,31.50
2018-06-15T07:53:06.897Z,31.80
2018-06-15T07:55:35.405Z,31.60
2018-06-15T07:58:03.849Z,31.30
2018-06-15T08:00:32.327Z,31.10
2018-06-15T08:03:01.421Z,30.60
2018-06-15T08:05:29.857Z,30.30
2018-06-15T08:07:58.293Z,29.90
2018-06-15T08:10:26.784Z,30.10
2018-06-15T08:12:55.370Z,30.40
2018-06-15T08:15:23.820Z,30.60
2018-06-15T08:17:52.350Z,30.60
2018-06-15T08:20:20.810Z,30.20
2018-06-15T08:22:49.260Z,29.80
2018-06-15T08:25:17.711Z,30.00
2018-06-15T08:27:47.102Z,30.00
2018-06-15T08:30:15.745Z,29.90
2018-06-15T08:32:44.174Z,29.90
2018-06-15T08:35:12.680Z,30.00
2018-06-15T08:37:41.105Z,30.10
2018-06-15T08:40:09.537Z,29.90
2018-06-15T08:42:37.962Z,29.90
2018-06-15T08:45:06.390Z,29.80
2018-06-15T08:47:34.777Z,30.10
2018-06-15T08:50:03.386Z,30.40
2018-06-15T08:52:31.929Z,30.80
2018-06-15T08:55:00.494Z,31.50
2018-06-15T08:57:29.005Z,31.60
2018-06-15T08:59:57.406Z,31.40
2018-06-15T09:02:25.827Z,31.10
2018-06-15T09:04:54.283Z,31.20
2018-06-15T09:09:50.906Z,31.50
2018-06-15T09:12:19.328Z,32.30
2018-06-15T09:14:47.787Z,32.70
2018-06-15T09:19:44.348Z,32.80
2018-06-15T09:22:12.765Z,32.60
2018-06-15T09:24:41.208Z,32.80
2018-06-15T09:27:09.620Z,33.30
2018-06-15T09:29:38.055Z,33.40
2018-06-15T09:32:06.494Z,33.50
2018-06-15T09:34:34.919Z,34.00
2018-06-15T09:37:03.346Z,34.70
2018-06-15T09:39:31.919Z,34.40
2018-06-15T09:42:00.402Z,34.20
2018-06-15T09:44:28.893Z,33.60
2018-06-15T09:46:57.300Z,33.70
2018-06-15T09:49:25.691Z,34.30
2018-06-15T09:51:54.118Z,35.10
2018-06-15T09:54:22.522Z,35.80
2018-06-15T09:56:51.153Z,37.00
2018-06-15T09:59:19.550Z,37.90
2018-06-15T10:01:48.010Z,38.50
2018-06-15T10:04:19.383Z,39.50
2018-06-15T10:06:47.784Z,40.20
2018-06-15T10:09:16.931Z,40.90
2018-06-15T10:11:45.370Z,41.30
2018-06-15T10:16:42.151Z,41.20
2018-06-15T10:19:11.525Z,41.10
2018-06-15T10:21:40.108Z,41.80
2018-06-15T10:24:08.572Z,41.60
2018-06-15T10:26:36.977Z,41.10
2018-06-15T10:29:05.516Z,40.60
2018-06-15T10:34:02.068Z,40.30
2018-06-15T10:36:30.487Z,40.00
2018-06-15T10:38:58.928Z,39.20
2018-06-15T10:41:27.358Z,38.10
2018-06-15T10:43:55.874Z,36.60
2018-06-15T10:46:24.365Z,35.80
2018-06-15T10:48:52.776Z,35.20
2018-06-15T10:51:21.154Z,35.40
2018-06-15T10:53:49.589Z,35.70
2018-06-15T10:56:18.100Z,36.00
2018-06-15T10:58:46.535Z,35.70
2018-06-15T11:01:14.978Z,35.40
2018-06-15T11:03:43.421Z,34.60
2018-06-15T11:06:11.843Z,33.80
2018-06-15T11:08:40.297Z,33.20
2018-06-15T11:11:08.773Z,32.90
2018-06-15T11:13:37.218Z,32.40
2018-06-15T11:16:06.153Z,31.10
2018-06-15T11:18:34.619Z,31.10
2018-06-15T11:21:03.162Z,30.80
2018-06-15T11:23:31.617Z,30.50
2018-06-15T11:26:00.235Z,30.50
2018-06-15T11:28:28.695Z,30.50
2018-06-15T11:30:57.208Z,30.40
2018-06-15T11:33:25.626Z,30.20
2018-06-15T11:35:54.153Z,30.10
2018-06-15T11:38:22.595Z,30.20
2018-06-15T11:40:51.004Z,30.40
2018-06-15T11:43:19.415Z,30.60
2018-06-15T11:45:48.096Z,30.60
2018-06-15T11:48:16.517Z,30.60
2018-06-15T11:50:44.934Z,30.40
2018-06-15T11:53:13.576Z,30.40
2018-06-15T11:55:42.001Z,30.30
2018-06-15T11:58:10.477Z,30.30
2018-06-15T12:00:38.912Z,30.10
2018-06-15T12:03:07.338Z,29.60
2018-06-15T12:05:35.789Z,29.40
2018-06-15T12:08:04.278Z,29.50
2018-06-15T12:10:32.766Z,29.30
2018-06-15T12:13:01.192Z,29.40
2018-06-15T12:17:57.770Z,29.50
2018-06-15T12:20:26.201Z,29.50
2018-06-15T12:22:54.624Z,29.70
2018-06-15T12:25:23.175Z,29.70
2018-06-15T12:27:51.568Z,29.80
2018-06-15T12:30:20.021Z,29.90
2018-06-15T12:32:48.647Z,30.00
2018-06-15T12:35:17.010Z,30.10
2018-06-15T12:37:45.446Z,30.30
2018-06-15T12:40:13.910Z,30.40
2018-06-15T12:42:42.358Z,30.30
2018-06-15T12:45:11.002Z,30.00
2018-06-15T12:50:07.505Z,29.80
2018-06-15T12:52:35.948Z,29.80
2018-06-15T12:55:04.446Z,29.90
2018-06-15T12:57:32.874Z,30.10
2018-06-15T13:00:01.268Z,30.30
2018-06-15T13:02:29.801Z,30.60
2018-06-15T13:04:58.228Z,30.60
2018-06-15T13:07:26.629Z,30.80
2018-06-15T13:09:55.062Z,30.70
2018-06-15T13:12:23.445Z,30.60
2018-06-15T13:14:51.875Z,30.10
2018-06-15T13:17:20.361Z,30.00
2018-06-15T13:19:48.776Z,29.80
2018-06-15T13:22:17.212Z,29.60
2018-06-15T13:24:46.488Z,29.10
2018-06-15T13:27:14.926Z,29.10
2018-06-15T13:29:43.346Z,29.10
2018-06-15T13:32:11.782Z,29.00
2018-06-15T13:34:40.184Z,28.90
2018-06-15T13:37:08.729Z,28.80
2018-06-15T13:39:37.253Z,28.60
2018-06-15T13:44:33.779Z,28.80
2018-06-15T13:47:02.318Z,29.00
2018-06-15T13:49:30.754Z,29.30
2018-06-15T13:51:59.217Z,29.40
2018-06-15T13:54:27.675Z,29.50
2018-06-15T13:56:57.121Z,29.30
2018-06-15T13:59:25.538Z,29.30
2018-06-15T14:01:53.994Z,29.10
2018-06-15T14:04:22.505Z,29.10
2018-06-15T14:06:50.953Z,29.00
2018-06-15T14:09:19.353Z,28.60
2018-06-15T14:11:47.796Z,28.60
2018-06-15T14:14:16.465Z,28.60
2018-06-15T14:16:44.868Z,28.80
2018-06-15T14:19:13.550Z,28.70
2018-06-15T14:21:42.068Z,28.50
2018-06-15T14:24:10.470Z,28.30
2018-06-15T14:26:38.868Z,28.40
2018-06-15T14:29:07.408Z,28.50
2018-06-15T14:31:35.891Z,28.60
2018-06-15T14:34:04.510Z,28.80
2018-06-15T14:36:32.954Z,28.70
2018-06-15T14:39:01.456Z,28.70
2018-06-15T14:41:29.955Z,28.70
2018-06-15T14:43:58.390Z,28.60
2018-06-15T14:46:26.885Z,28.60
2018-06-15T14:48:55.344Z,28.60
2018-06-15T14:51:23.806Z,28.40
2018-06-15T14:53:52.331Z,28.50
2018-06-15T14:56:21.103Z,28.60
2018-06-15T14:58:49.537Z,28.60
2018-06-15T15:01:18.013Z,28.50
2018-06-15T15:03:47.245Z,28.50
2018-06-15T15:06:15.952Z,28.40
2018-06-15T15:08:44.611Z,28.30
2018-06-15T15:11:13.339Z,28.30
2018-06-15T15:13:41.768Z,28.40
2018-06-15T15:16:10.301Z,28.30
2018-06-15T15:18:38.793Z,28.30
2018-06-15T15:21:07.225Z,28.10
2018-06-15T15:23:35.698Z,28.00
2018-06-15T15:26:04.168Z,27.80
2018-06-15T15:28:32.777Z,27.70
2018-06-15T15:31:01.265Z,27.70
2018-06-15T15:33:29.729Z,27.60
2018-06-15T15:35:58.274Z,27.60
2018-06-15T15:38:26.689Z,27.60
2018-06-15T15:40:55.128Z,27.60
2018-06-15T15:43:24.494Z,27.60
2018-06-15T15:45:52.976Z,27.50
2018-06-15T15:48:21.489Z,27.50
2018-06-15T15:50:50.035Z,27.60
2018-06-15T15:53:19.539Z,27.70
2018-06-15T15:55:48.082Z,27.80
2018-06-15T15:58:16.593Z,27.80
2018-06-15T16:00:45.060Z,27.80
2018-06-15T16:03:13.506Z,28.00
2018-06-15T16:05:42.052Z,28.00
2018-06-15T16:08:10.508Z,27.80
2018-06-15T16:10:39.117Z,27.70
2018-06-15T16:13:07.554Z,27.80
2018-06-15T16:15:36.429Z,27.90
2018-06-15T16:18:05.301Z,28.00
2018-06-15T16:20:33.731Z,28.10
2018-06-15T16:23:02.194Z,28.10
2018-06-15T16:25:30.633Z,28.10
2018-06-15T16:28:02.124Z,28.10
2018-06-15T16:30:30.529Z,28.30
2018-06-15T16:32:58.972Z,28.40
2018-06-15T16:35:27.761Z,28.50
2018-06-15T16:37:56.210Z,28.60
2018-06-15T16:40:24.769Z,28.50
2018-06-15T16:42:53.385Z,28.40
2018-06-15T16:45:21.871Z,28.30
2018-06-15T16:47:51.202Z,28.20
2018-06-15T16:50:19.616Z,28.10
2018-06-15T16:52:48.370Z,28.10
2018-06-15T16:55:16.930Z,28.00
2018-06-15T16:57:45.526Z,27.80
2018-06-15T17:00:13.988Z,27.70
2018-06-15T17:02:42.430Z,27.70
2018-06-15T17:05:11.241Z,27.70
2018-06-15T17:07:39.671Z,27.60
2018-06-15T17:10:08.213Z,27.50
2018-06-15T17:12:36.672Z,27.40
2018-06-15T17:15:05.210Z,27.20
2018-06-15T17:17:33.648Z,27.20
2018-06-15T17:20:02.216Z,27.30
2018-06-15T17:22:32.018Z,27.10
2018-06-15T17:25:00.455Z,27.10
2018-06-15T17:27:28.932Z,27.10
2018-06-15T17:29:57.385Z,27.10
2018-06-15T17:32:25.988Z,27.00
2018-06-15T17:34:54.470Z,27.00
2018-06-15T17:37:22.947Z,26.90
2018-06-15T17:39:51.432Z,26.90
2018-06-15T17:42:19.852Z,26.80
2018-06-15T17:44:48.314Z,26.80
2018-06-15T17:49:44.904Z,26.60
2018-06-15T17:52:13.390Z,26.50
2018-06-15T17:54:41.934Z,26.50
2018-06-15T17:57:10.460Z,26.30
2018-06-15T17:59:39.033Z,26.20
2018-06-15T18:02:07.843Z,26.20
2018-06-15T18:04:37.538Z,26.00
2018-06-15T18:07:06.110Z,25.90
2018-06-15T18:09:34.824Z,25.70
2018-06-15T18:12:03.435Z,25.50
2018-06-15T18:14:31.992Z,25.40
2018-06-15T18:17:00.578Z,25.20
2018-06-15T18:19:28.995Z,25.00
2018-06-15T18:21:57.486Z,25.00
2018-06-15T18:24:25.953Z,24.90
2018-06-15T18:26:55.178Z,24.80
2018-06-15T18:29:23.889Z,24.70
2018-06-15T18:31:52.367Z,24.60
2018-06-15T18:34:20.822Z,24.50
2018-06-15T18:36:49.293Z,24.40
2018-06-15T18:39:17.773Z,24.30
2018-06-15T18:41:46.213Z,24.10
2018-06-15T18:44:15.034Z,24.10
2018-06-15T18:46:43.813Z,24.00
2018-06-15T18:49:12.482Z,23.90
2018-06-15T18:51:40.925Z,23.80
2018-06-15T18:54:09.480Z,23.80
2018-06-15T18:56:37.998Z,23.70
2018-06-15T18:59:07.122Z,23.70
2018-06-15T19:01:35.602Z,23.70
2018-06-15T19:04:04.136Z,23.60
2018-06-15T19:06:32.606Z,23.60
2018-06-15T19:09:01.065Z,23.50
2018-06-15T19:11:29.651Z,23.40
2018-06-15T19:13:58.108Z,23.30
2018-06-15T19:16:26.560Z,23.30
2018-06-15T19:18:55.057Z,23.20
2018-06-15T19:21:23.501Z,23.20
2018-06-15T19:23:52.008Z,23.10
2018-06-15T19:26:20.504Z,23.00
2018-06-15T19:28:49.040Z,22.90
2018-06-15T19:31:17.435Z,22.90
2018-06-15T19:33:45.867Z,22.80
2018-06-15T19:36:14.311Z,22.80
2018-06-15T19:38:42.734Z,22.70
2018-06-15T19:41:11.549Z,22.60
2018-06-15T19:43:40.006Z,22.60
2018-06-15T19:46:08.458Z,22.50
2018-06-15T19:48:37.066Z,22.40
2018-06-15T19:51:05.619Z,22.40
2018-06-15T19:53:34.117Z,22.30
2018-06-15T19:56:02.591Z,22.20
2018-06-15T19:58:31.011Z,22.20
2018-06-15T20:00:59.641Z,22.10
2018-06-15T20:03:28.038Z,22.10
2018-06-15T20:05:57.404Z,22.00
2018-06-15T20:08:26.148Z,21.90
2018-06-15T20:10:54.563Z,21.90
2018-06-15T20:13:22.973Z,21.80
2018-06-15T20:15:51.437Z,21.80
2018-06-15T20:18:19.858Z,21.70
2018-06-15T20:20:48.321Z,21.60
2018-06-15T20:23:17.071Z,21.60
2018-06-15T20:25:45.504Z,21.50
2018-06-15T20:28:14.053Z,21.40
2018-06-15T20:30:42.514Z,21.30
2018-06-15T20:33:10.982Z,21.20
2018-06-15T20:35:39.556Z,21.10
2018-06-15T20:38:08.024Z,21.00
2018-06-15T20:40:36.428Z,20.90
2018-06-15T20:43:05.695Z,20.80
2018-06-15T20:45:34.121Z,20.70
2018-06-15T20:48:03.145Z,20.70
2018-06-15T20:50:31.930Z,20.60
2018-06-15T20:53:00.361Z,20.60
2018-06-15T20:55:28.891Z,20.50
2018-06-15T20:57:57.324Z,20.50
2018-06-15T21:00:25.825Z,20.50
2018-06-15T21:02:54.402Z,20.50
2018-06-15T21:05:22.830Z,20.50
2018-06-15T21:10:19.399Z,20.50
2018-06-15T21:12:47.826Z,20.50
2018-06-15T21:15:16.309Z,20.40
2018-06-15T21:17:44.793Z,20.40
2018-06-15T21:20:13.476Z,20.40
2018-06-15T21:22:42.049Z,20.40
2018-06-15T21:25:10.480Z,20.30
2018-06-15T21:27:38.966Z,20.30
2018-06-15T21:30:07.432Z,20.20
2018-06-15T21:32:35.892Z,20.20
2018-06-15T21:37:32.612Z,20.10
2018-06-15T21:40:01.146Z,20.00
2018-06-15T21:42:29.584Z,20.00
2018-06-15T21:44:58.277Z,20.00
2018-06-15T21:47:26.702Z,20.00
2018-06-15T21:49:55.131Z,19.90
2018-06-15T21:52:23.600Z,19.90
2018-06-15T21:54:52.006Z,19.80
2018-06-15T21:57:20.521Z,19.80
2018-06-15T21:59:49.730Z,19.80
2018-06-15T22:02:18.159Z,19.80
2018-06-15T22:04:46.616Z,19.80
2018-06-15T22:07:15.042Z,19.80
2018-06-15T22:09:43.469Z,19.70
2018-06-15T22:12:11.925Z,19.70
2018-06-15T22:14:40.432Z,19.70
2018-06-15T22:17:08.973Z,19.60
2018-06-15T22:19:37.443Z,19.50
2018-06-15T22:22:05.923Z,19.50
2018-06-15T22:24:34.342Z,19.40
2018-06-15T22:27:02.778Z,19.40
2018-06-15T22:29:31.211Z,19.40
2018-06-15T22:31:59.704Z,19.40
2018-06-15T22:34:28.091Z,19.30
2018-06-15T22:36:56.550Z,19.30
2018-06-15T22:39:24.981Z,19.30
2018-06-15T22:41:53.406Z,19.30
2018-06-15T22:44:21.839Z,19.30
2018-06-15T22:46:50.455Z,19.20
2018-06-15T22:49:18.897Z,19.20
2018-06-15T22:51:47.379Z,19.20
2018-06-15T22:54:15.799Z,19.10
2018-06-15T22:56:44.318Z,19.10
2018-06-15T23:01:40.837Z,19.00
2018-06-15T23:04:09.286Z,18.90
2018-06-15T23:06:37.741Z,18.90
2018-06-15T23:09:08.230Z,18.80
2018-06-15T23:11:36.621Z,18.70
2018-06-15T23:14:05.304Z,18.60
2018-06-15T23:16:34.053Z,18.50
2018-06-15T23:19:02.469Z,18.40
2018-06-15T23:26:27.568Z,18.30
2018-06-15T23:28:55.957Z,18.30
2018-06-15T23:31:24.458Z,18.20
2018-06-15T23:33:52.894Z,18.20
2018-06-15T23:36:21.409Z,18.10
2018-06-15T23:38:49.925Z,18.10
2018-06-15T23:41:18.667Z,18.10
2018-06-15T23:43:47.081Z,18.10
2018-06-15T23:46:15.494Z,18.00
2018-06-15T23:48:43.947Z,18.00
2018-06-15T23:51:12.368Z,18.00
2018-06-15T23:53:40.836Z,17.90
2018-06-15T23:56:09.276Z,17.90
2018-06-15T23:58:37.912Z,17.90
